Time;durP1;ratioP1;P1;durP2;ratioP2;P2;SDS_P1;SDS_P2;PMS_P1;PMS_P2;Temp;Humidity;BMP_temperature;BMP_pressure;BME280_temperature;BME280_humidity;BME280_pressure;Samples;Min_cycle;Max_cycle;Signal;HPM_P1;HPM_P2
2021/12/19 20:59:49;;;;;;;7.80;3.17;;;21.80;51.00;;;;;;3855644;23;20063;-88
2021/12/19 21:01:21;;;;;;;9.35;3.50;;;21.80;51.40;;;;;;3855542;23;20626;-87
2021/12/19 21:02:53;;;;;;;7.20;3.20;;;21.80;51.00;;;;;;3855758;23;20082;-87
2021/12/19 21:04:25;;;;;;;10.73;3.25;;;21.90;51.20;;;;;;3856528;23;20017;-88
2021/12/19 21:05:57;;;;;;;7.82;3.53;;;21.90;51.30;;;;;;3855723;23;20079;-88
2021/12/19 21:07:28;;;;;;;5.90;3.05;;;21.90;51.50;;;;;;3856187;23;20075;-88
2021/12/19 21:09:00;;;;;;;6.57;2.70;;;21.90;51.40;;;;;;3855572;22;20069;-88
2021/12/19 21:10:32;;;;;;;8.23;2.80;;;21.90;51.30;;;;;;3854894;23;20054;-88
2021/12/19 21:12:12;;;;;;;6.97;3.03;;;21.90;51.40;;;;;;3855685;23;20025;-88
2021/12/19 21:13:55;;;;;;;5.90;2.78;;;21.90;51.40;;;;;;3854867;23;20404;-90
2021/12/19 21:19:21;;;;;;;5.70;2.42;;;21.90;51.40;;;;;;3855375;23;20439;-88
2021/12/19 21:19:22;;;;;;;6.65;2.35;;;21.90;51.40;;;;;;3855660;22;20020;-88
2021/12/19 21:20:54;;;;;;;6.65;2.45;;;21.90;51.40;;;;;;3856331;23;20020;-87
2021/12/19 21:22:26;;;;;;;4.53;2.30;;;21.90;51.70;;;;;;3856027;23;20021;-88
2021/12/19 21:23:58;;;;;;;4.90;2.20;;;21.90;51.50;;;;;;3854529;22;20027;-87
2021/12/19 21:25:30;;;;;;;4.32;2.25;;;21.90;51.40;;;;;;3856757;23;20020;-87
2021/12/19 21:27:03;;;;;;;9.00;2.50;;;21.90;51.40;;;;;;3855326;23;20025;-88
2021/12/19 21:28:35;;;;;;;5.32;2.30;;;21.90;51.50;;;;;;3855076;22;20463;-87
2021/12/19 21:30:08;;;;;;;5.60;2.30;;;21.90;51.50;;;;;;3855220;23;20103;-89
2021/12/19 21:31:41;;;;;;;;;;;21.90;51.60;;;;;;3856643;23;20095;-88
2021/12/19 21:33:13;;;;;;;4.13;2.38;;;21.90;51.50;;;;;;3855207;23;19991;-89
2021/12/19 21:34:47;;;;;;;4.72;1.73;;;21.80;51.70;;;;;;3854362;22;20027;-88
2021/12/19 21:39:58;;;;;;;4.65;1.90;;;21.90;51.50;;;;;;3854966;23;20016;-88
2021/12/19 21:41:31;;;;;;;6.03;2.40;;;21.80;51.50;;;;;;3855675;23;20028;-88
2021/12/19 21:43:03;;;;;;;6.65;1.95;;;21.90;51.50;;;;;;3854939;23;20092;-90
2021/12/19 21:44:37;;;;;;;3.72;1.90;;;21.80;51.50;;;;;;3855018;22;20024;-88
2021/12/19 21:46:08;;;;;;;8.00;2.05;;;21.90;51.40;;;;;;3855261;23;20032;-88
2021/12/19 21:47:42;;;;;;;7.80;2.10;;;21.90;51.40;;;;;;3855322;23;20039;-88
2021/12/19 21:49:14;;;;;;;5.32;1.85;;;21.90;51.60;;;;;;3855359;22;20499;-88
2021/12/19 21:50:46;;;;;;;6.72;1.92;;;21.80;51.50;;;;;;3854257;23;20410;-89
2021/12/19 21:52:18;;;;;;;6.20;1.92;;;21.80;51.50;;;;;;3855683;23;20047;-88
2021/12/19 21:53:50;;;;;;;3.70;1.85;;;21.90;51.60;;;;;;3854531;22;20395;-88
2021/12/19 21:55:21;;;;;;;5.20;1.80;;;21.90;51.50;;;;;;3855955;23;20382;-88
2021/12/19 21:56:53;;;;;;;6.05;1.80;;;21.90;51.60;;;;;;3855920;23;20020;-88
2021/12/19 21:58:25;;;;;;;3.67;1.80;;;21.90;51.50;;;;;;3853307;22;20392;-88
2021/12/19 21:59:57;;;;;;;5.75;1.92;;;21.90;51.70;;;;;;3855868;23;20013;-88
2021/12/19 22:01:39;;;;;;;3.88;1.95;;;21.90;51.70;;;;;;3854994;23;20028;-88
2021/12/19 22:03:12;;;;;;;4.82;2.00;;;21.80;52.20;;;;;;3855155;23;20022;-87
2021/12/19 22:04:44;;;;;;;4.60;1.95;;;21.90;51.60;;;;;;3854420;23;20024;-89
2021/12/19 22:06:17;;;;;;;5.65;1.90;;;21.80;51.70;;;;;;3856058;23;20023;-89
2021/12/19 22:07:48;;;;;;;10.90;2.47;;;21.80;51.60;;;;;;3854198;23;20031;-89
2021/12/19 22:09:23;;;;;;;4.13;1.73;;;21.80;51.60;;;;;;3855262;23;20095;-89
2021/12/19 22:11:04;;;;;;;5.20;2.03;;;21.80;51.70;;;;;;3854990;23;20679;-87
2021/12/19 22:12:43;;;;;;;5.30;2.00;;;21.80;51.60;;;;;;3855238;23;20026;-87
2021/12/19 22:16:05;;;;;;;5.20;2.00;;;21.80;51.70;;;;;;3854816;23;20024;-87
2021/12/19 22:17:37;;;;;;;3.90;1.88;;;21.80;51.70;;;;;;3855037;23;20464;-88
2021/12/19 22:19:10;;;;;;;4.88;1.98;;;21.80;51.70;;;;;;3855214;22;20031;-87
2021/12/19 22:20:43;;;;;;;5.85;2.10;;;21.80;51.80;;;;;;3855619;23;20028;-88
2021/12/19 22:22:15;;;;;;;;;;;21.80;51.80;;;;;;3856050;23;20017;-88
2021/12/19 22:23:47;;;;;;;6.45;1.80;;;21.80;51.80;;;;;;3854727;22;19916;-87
2021/12/19 22:25:19;;;;;;;5.20;2.13;;;21.80;51.90;;;;;;3855681;23;20020;-88
2021/12/19 22:26:51;;;;;;;6.05;2.17;;;21.80;52.60;;;;;;3855634;23;20040;-87
2021/12/19 22:28:23;;;;;;;6.78;2.20;;;21.80;52.00;;;;;;3854897;22;20032;-87
2021/12/19 22:29:55;;;;;;;4.05;1.83;;;21.80;52.00;;;;;;3855614;23;20091;-87
2021/12/19 22:31:27;;;;;;;6.43;2.22;;;21.80;52.00;;;;;;3853601;23;20028;-87
2021/12/19 22:32:59;;;;;;;3.80;1.75;;;21.80;51.80;;;;;;3854650;23;20039;-87
2021/12/19 22:34:33;;;;;;;6.97;1.95;;;21.80;51.80;;;;;;3854588;22;20024;-88
2021/12/19 22:36:05;;;;;;;5.30;1.90;;;21.80;51.70;;;;;;3855505;23;20023;-88
2021/12/19 22:37:37;;;;;;;5.53;2.17;;;21.80;51.70;;;;;;3854961;23;20505;-87
2021/12/19 22:39:09;;;;;;;9.77;2.03;;;21.80;51.80;;;;;;3853664;22;20332;-87
2021/12/19 22:40:41;;;;;;;3.50;1.90;;;21.80;51.80;;;;;;3855621;23;20016;-88
2021/12/19 22:42:12;;;;;;;5.68;2.15;;;21.80;51.90;;;;;;3855560;23;20407;-87
2021/12/19 22:43:44;;;;;;;8.00;2.40;;;21.80;51.80;;;;;;3854946;22;20016;-87
2021/12/19 22:45:16;;;;;;;7.40;1.95;;;21.80;51.80;;;;;;3854634;23;20451;-87
2021/12/19 22:46:47;;;;;;;6.50;2.22;;;21.80;51.80;;;;;;3854582;23;20392;-87
2021/12/19 22:48:19;;;;;;;3.80;2.05;;;21.80;51.70;;;;;;3855662;23;20023;-88
2021/12/19 22:49:53;;;;;;;5.78;1.90;;;21.80;51.60;;;;;;3855317;23;20013;-87
2021/12/19 22:51:25;;;;;;;6.75;2.03;;;21.80;51.60;;;;;;3855471;23;20054;-87
2021/12/19 22:52:58;;;;;;;4.53;2.28;;;21.80;51.50;;;;;;3855696;23;20027;-87
2021/12/19 22:54:29;;;;;;;;;;;21.80;52.20;;;;;;3855273;22;20020;-87
2021/12/19 22:56:01;;;;;;;4.68;1.80;;;21.80;51.60;;;;;;3855510;23;20738;-89
2021/12/19 22:57:33;;;;;;;3.20;1.80;;;21.70;51.60;;;;;;3854934;23;20030;-87
2021/12/19 22:59:05;;;;;;;4.32;2.13;;;21.70;51.60;;;;;;3854889;22;20048;-87
2021/12/19 23:00:48;;;;;;;3.92;2.00;;;21.70;51.50;;;;;;3854945;23;20389;-87
2021/12/19 23:02:20;;;;;;;6.07;2.20;;;21.70;51.40;;;;;;3853489;23;20359;-87
2021/12/19 23:03:52;;;;;;;3.85;2.05;;;21.70;51.50;;;;;;3854180;23;20020;-88
2021/12/19 23:05:26;;;;;;;4.55;2.15;;;21.70;51.40;;;;;;3855421;23;20047;-88
2021/12/19 23:06:58;;;;;;;4.43;2.05;;;21.70;51.50;;;;;;3855380;23;20629;-87
2021/12/19 23:08:30;;;;;;;3.28;2.10;;;21.70;51.40;;;;;;3854258;22;20016;-87
2021/12/19 23:10:02;;;;;;;7.18;2.08;;;21.70;51.40;;;;;;3855571;23;20448;-88
2021/12/19 23:11:38;;;;;;;3.28;1.70;;;21.70;51.30;;;;;;3856033;23;20020;-88
2021/12/19 23:13:15;;;;;;;4.18;2.00;;;21.70;51.90;;;;;;3854634;23;20024;-86
2021/12/19 23:14:49;;;;;;;4.72;2.03;;;21.70;51.20;;;;;;3854996;23;20023;-88
2021/12/19 23:16:24;;;;;;;4.53;1.90;;;21.70;51.10;;;;;;3854228;23;20074;-86
2021/12/19 23:17:58;;;;;;;5.60;1.88;;;21.70;51.00;;;;;;3855448;23;20104;-90
2021/12/19 23:19:30;;;;;;;4.15;2.25;;;21.70;51.10;;;;;;3853259;22;20031;-88
2021/12/19 23:21:04;;;;;;;3.40;2.10;;;21.70;51.10;;;;;;3855482;23;20451;-87
2021/12/19 23:22:36;;;;;;;3.80;1.90;;;21.70;51.00;;;;;;3855744;23;20021;-87
2021/12/19 23:24:08;;;;;;;3.50;1.88;;;21.70;50.90;;;;;;3853962;22;20031;-87
2021/12/19 23:25:40;;;;;;;4.97;2.15;;;21.70;50.90;;;;;;3855308;23;20443;-87
2021/12/19 23:27:12;;;;;;;5.82;2.08;;;21.70;50.90;;;;;;3854918;23;20459;-87
2021/12/19 23:28:44;;;;;;;3.63;2.00;;;21.60;50.90;;;;;;3854547;22;20397;-88
2021/12/19 23:30:15;;;;;;;3.90;2.00;;;21.60;51.50;;;;;;3854292;23;20447;-88
2021/12/19 23:31:47;;;;;;;3.85;1.98;;;21.60;50.80;;;;;;3854827;23;20017;-87
2021/12/19 23:35:08;;;;;;;3.67;1.83;;;21.60;50.80;;;;;;3852769;23;20016;-88
2021/12/19 23:36:47;;;;;;;4.38;2.22;;;21.60;50.80;;;;;;3854875;23;20020;-90
2021/12/19 23:38:33;;;;;;;5.25;2.10;;;21.60;50.80;;;;;;3854634;23;20470;-88
2021/12/19 23:40:16;;;;;;;4.55;2.00;;;21.60;50.80;;;;;;3854818;23;20020;-88
2021/12/19 23:42:09;;;;;;;3.83;1.90;;;21.60;50.80;;;;;;3855025;23;20426;-87
2021/12/19 23:45:36;;;;;;;4.13;1.85;;;21.50;50.70;;;;;;3815266;23;20000;-90
2021/12/19 23:47:08;;;;;;;4.20;1.67;;;21.60;51.40;;;;;;3837475;23;20424;-89
2021/12/19 23:48:39;;;;;;;3.60;1.80;;;21.50;50.70;;;;;;3854231;23;20020;-87
2021/12/19 23:50:11;;;;;;;5.00;2.30;;;21.50;50.60;;;;;;3853986;23;20513;-88
2021/12/19 23:51:45;;;;;;;3.67;1.80;;;21.60;50.60;;;;;;3855063;23;20028;-88
2021/12/19 23:53:17;;;;;;;3.72;2.00;;;21.60;50.60;;;;;;3853591;22;20246;-88
2021/12/19 23:54:47;;;;;;;4.18;1.98;;;21.60;51.20;;;;;;3855023;23;20024;-88
2021/12/19 23:56:19;;;;;;;3.75;1.85;;;21.60;50.60;;;;;;3855250;23;20021;-88
2021/12/19 23:57:51;;;;;;;3.90;2.22;;;21.60;50.60;;;;;;3854531;23;20448;-87
2021/12/19 23:59:23;;;;;;;3.97;2.15;;;21.60;50.50;;;;;;3852863;22;20024;-87
